Time;durP1;ratioP1;P1;durP2;ratioP2;P2;SDS_P1;SDS_P2;PMS_P1;PMS_P2;Temp;Humidity;BMP_temperature;BMP_pressure;BME280_temperature;BME280_humidity;BME280_pressure;Samples;Min_cycle;Max_cycle;Signal;HPM_P1;HPM_P2
2021/12/19 00:09:22;;;;;;;37.92;20.45;;;;;;;-1.10;80.32;93884.00;5078498;28;20463;-47
2021/12/19 00:11:47;;;;;;;39.03;20.02;;;;;;;-1.12;79.93;93889.88;5081263;28;20024;-45
2021/12/19 00:14:13;;;;;;;34.92;18.98;;;;;;;-1.12;79.84;93879.03;5089771;28;20024;-45
2021/12/19 00:16:39;;;;;;;35.95;19.20;;;;;;;-1.10;80.23;93876.63;5090072;28;20051;-45
2021/12/19 00:19:04;;;;;;;37.20;19.15;;;;;;;-1.07;79.96;93878.41;5091070;28;20081;-44
2021/12/19 00:21:30;;;;;;;38.25;19.73;;;;;;;-1.13;80.57;93866.72;5093914;28;20157;-46
2021/12/19 00:23:56;;;;;;;37.05;19.48;;;;;;;-1.24;81.08;93863.78;5092297;28;20114;-46
2021/12/19 00:26:22;;;;;;;35.88;19.13;;;;;;;-1.09;80.61;93863.81;5093373;28;20103;-45
2021/12/19 00:28:48;;;;;;;34.13;18.17;;;;;;;-0.99;79.27;93859.81;5093542;28;20107;-47
2021/12/19 00:31:14;;;;;;;39.78;20.00;;;;;;;-1.00;79.50;93858.34;5093679;28;20126;-47
2021/12/19 00:33:40;;;;;;;39.05;21.33;;;;;;;-1.21;79.91;93837.75;5093630;28;20512;-45
2021/12/19 00:36:06;;;;;;;32.28;18.48;;;;;;;-1.08;79.71;93862.59;5093380;28;20550;-44
2021/12/19 00:38:32;;;;;;;38.15;20.80;;;;;;;-1.12;78.84;93851.94;5093220;28;20057;-44
2021/12/19 00:40:58;;;;;;;36.78;19.65;;;;;;;-1.49;79.63;93860.81;5093356;28;20024;-46
2021/12/19 00:43:43;;;;;;;47.10;21.50;;;;;;;-1.45;79.99;93850.56;5093019;28;20564;-44
2021/12/19 00:46:10;;;;;;;46.25;24.17;;;;;;;-1.47;80.48;93848.28;5093475;28;20024;-46
2021/12/19 00:48:41;;;;;;;39.65;22.02;;;;;;;-1.50;80.92;93849.22;5093386;28;20085;-43
2021/12/19 00:51:08;;;;;;;43.10;22.80;;;;;;;-1.46;81.03;93854.47;5093438;28;20455;-46
2021/12/19 00:53:34;;;;;;;43.63;24.23;;;;;;;-1.37;81.55;93843.56;5087854;28;20060;-44
2021/12/19 00:56:00;;;;;;;39.22;20.70;;;;;;;-1.40;81.83;93847.19;5072970;28;20543;-44
2021/12/19 00:58:26;;;;;;;33.08;17.52;;;;;;;-1.25;81.26;93839.84;5079020;28;20497;-45
2021/12/19 01:00:51;;;;;;;37.42;18.98;;;;;;;-1.30;80.98;93852.06;5081519;28;20032;-43
2021/12/19 01:03:18;;;;;;;33.80;18.38;;;;;;;-1.46;81.08;93841.69;5083608;28;20020;-42
2021/12/19 01:05:44;;;;;;;45.67;22.60;;;;;;;-1.35;81.41;93847.31;5081947;28;20036;-44
2021/12/19 01:08:12;;;;;;;39.35;20.67;;;;;;;-1.37;81.33;93817.25;5082332;28;20454;-46
2021/12/19 01:10:38;;;;;;;49.05;21.70;;;;;;;-1.28;80.93;93846.22;5083479;28;20063;-46
2021/12/19 01:13:03;;;;;;;118.70;24.13;;;;;;;-1.24;79.55;93842.13;5079322;28;20561;-46
2021/12/19 01:15:29;;;;;;;42.10;20.55;;;;;;;-1.28;79.83;93840.81;5080440;28;20039;-48
2021/12/19 01:17:55;;;;;;;46.60;19.85;;;;;;;-1.32;79.97;93842.94;5081971;28;20516;-47
2021/12/19 01:20:24;;;;;;;36.28;18.88;;;;;;;-1.33;79.99;93833.31;5082785;28;20528;-46
2021/12/19 01:22:50;;;;;;;;;;;;;;;-1.56;80.37;93838.28;5081463;28;20036;-48
2021/12/19 01:25:16;;;;;;;50.90;21.27;;;;;;;-1.77;80.58;93820.38;5081179;28;20043;-44
2021/12/19 01:27:42;;;;;;;75.75;20.35;;;;;;;-1.67;81.42;93835.34;5081984;28;20028;-45
2021/12/19 01:30:09;;;;;;;50.28;18.92;;;;;;;-1.52;80.58;93833.44;5079746;28;20028;-44
2021/12/19 01:32:35;;;;;;;63.03;19.92;;;;;;;-1.52;79.92;93829.25;5082435;28;20577;-46
2021/12/19 01:35:00;;;;;;;47.33;19.80;;;;;;;-1.71;81.20;93829.34;5080214;28;20635;-45
2021/12/19 01:37:26;;;;;;;64.85;19.65;;;;;;;-1.64;81.92;93825.53;5080010;28;20111;-48
2021/12/19 01:39:52;;;;;;;61.35;17.90;;;;;;;-1.65;81.87;93819.41;5080967;28;20028;-44
2021/12/19 01:42:20;;;;;;;62.53;17.83;;;;;;;-1.82;81.58;93821.00;5079374;28;20085;-46
2021/12/19 01:44:46;;;;;;;52.55;16.85;;;;;;;-1.82;81.31;93807.47;5081055;28;20114;-48
2021/12/19 01:47:13;;;;;;;55.78;18.60;;;;;;;-1.90;81.40;93789.31;5081599;28;20129;-45
2021/12/19 01:49:39;;;;;;;42.33;17.23;;;;;;;-1.89;81.45;93804.38;5079721;28;20024;-46
2021/12/19 01:52:04;;;;;;;59.67;18.95;;;;;;;-1.85;81.79;93799.53;5080963;28;20024;-45
2021/12/19 01:54:30;;;;;;;67.10;17.48;;;;;;;-1.82;81.65;93809.44;5080740;28;20020;-45
2021/12/19 01:56:56;;;;;;;39.08;18.10;;;;;;;-1.80;82.16;93799.63;5079498;28;20025;-47
2021/12/19 01:59:21;;;;;;;39.60;18.67;;;;;;;-1.90;82.62;93797.44;5081187;28;20020;-46
2021/12/19 02:01:50;;;;;;;42.45;18.30;;;;;;;-1.73;82.43;93796.59;5078765;28;20021;-46
2021/12/19 02:04:18;;;;;;;66.78;32.70;;;;;;;-1.66;82.00;93790.06;5080873;28;20095;-46
2021/12/19 02:06:44;;;;;;;31.93;16.70;;;;;;;-1.72;82.04;93783.81;5080920;28;20501;-47
2021/12/19 02:09:11;;;;;;;52.17;21.23;;;;;;;-1.61;82.75;93782.06;5079159;28;20020;-48
2021/12/19 02:11:38;;;;;;;60.35;24.67;;;;;;;-1.62;82.39;93782.53;5080506;28;20016;-46
2021/12/19 02:14:05;;;;;;;63.60;20.45;;;;;;;-1.65;81.72;93778.03;5080889;28;20035;-46
2021/12/19 02:16:31;;;;;;;62.92;20.55;;;;;;;-1.67;81.49;93780.47;5080886;28;20016;-46
2021/12/19 02:18:59;;;;;;;79.07;21.02;;;;;;;-1.70;81.58;93786.78;5079739;28;20039;-47
2021/12/19 02:21:25;;;;;;;57.78;21.02;;;;;;;-1.65;81.02;93780.75;5083982;28;20027;-48
2021/12/19 02:23:50;;;;;;;53.70;18.83;;;;;;;-1.74;81.06;93776.16;5080387;28;20012;-48
2021/12/19 02:26:17;;;;;;;60.85;17.67;;;;;;;-1.89;81.46;93786.19;5081310;28;20024;-47
2021/12/19 02:28:43;;;;;;;80.30;18.40;;;;;;;-1.82;81.37;93774.25;5079371;28;20035;-48
2021/12/19 02:31:09;;;;;;;58.10;17.90;;;;;;;-1.80;81.10;93771.84;5082280;28;20027;-48
2021/12/19 02:33:40;;;;;;;68.53;17.90;;;;;;;-1.87;81.03;93759.41;5079140;28;20034;-45
2021/12/19 02:36:57;;;;;;;100.00;21.30;;;;;;;-1.81;80.85;93768.38;5078966;28;20052;-47
2021/12/19 02:49:55;;;;;;;52.78;21.00;;;;;;;-1.95;81.36;93760.22;5090836;28;20031;-46
2021/12/19 02:52:21;;;;;;;57.25;22.35;;;;;;;-1.93;81.37;93769.38;5090983;28;20028;-46
2021/12/19 02:54:46;;;;;;;36.47;14.43;;;;;;;-1.93;80.70;93758.53;5091013;28;20028;-46
2021/12/19 02:57:12;;;;;;;43.17;16.25;;;;;;;-2.01;80.85;93762.78;5090497;28;20420;-46
2021/12/19 02:59:37;;;;;;;38.00;15.85;;;;;;;-1.93;80.90;93760.50;5090701;28;20036;-44
2021/12/19 03:02:03;;;;;;;50.97;16.13;;;;;;;-1.88;79.19;93757.88;5090724;28;20424;-44
2021/12/19 03:04:29;;;;;;;40.20;14.43;;;;;;;-1.95;77.99;93750.13;5090548;28;20043;-45
2021/12/19 03:06:54;;;;;;;29.73;14.10;;;;;;;-2.06;79.00;93763.44;5090553;28;20035;-47
2021/12/19 03:09:50;;;;;;;31.42;13.00;;;;;;;-2.04;79.12;93752.91;5090754;28;20107;-45
2021/12/19 03:20:07;;;;;;;33.40;15.50;;;;;;;-2.07;79.46;93745.69;5090384;28;20031;-45
2021/12/19 03:22:33;;;;;;;28.58;12.05;;;;;;;-2.07;79.81;93737.59;5090465;28;20089;-45
2021/12/19 03:24:58;;;;;;;22.92;12.55;;;;;;;-2.14;79.17;93737.91;5090728;28;20028;-46
2021/12/19 03:27:24;;;;;;;24.65;13.40;;;;;;;-2.09;79.10;93744.66;5090263;28;20020;-47
2021/12/19 03:29:49;;;;;;;24.52;13.55;;;;;;;-2.00;79.35;93734.53;5090332;28;20047;-46
2021/12/19 03:32:15;;;;;;;30.23;13.20;;;;;;;-2.05;78.89;93710.06;5090142;28;20031;-44
2021/12/19 03:34:40;;;;;;;24.77;13.75;;;;;;;-1.93;79.01;93709.84;5090157;28;20032;-45
2021/12/19 03:37:06;;;;;;;24.00;12.60;;;;;;;-1.96;79.24;93720.81;5090232;28;20028;-47
2021/12/19 03:39:45;;;;;;;32.00;15.10;;;;;;;-1.98;78.59;93724.00;5090000;28;20024;-44
2021/12/19 03:42:12;;;;;;;23.80;13.10;;;;;;;-2.06;77.19;93722.09;5089984;28;20013;-44
2021/12/19 03:44:39;;;;;;;29.42;14.48;;;;;;;-2.10;77.06;93724.25;5070679;28;20039;-46
2021/12/19 03:47:04;;;;;;;31.63;15.32;;;;;;;-2.07;77.12;93726.00;5078192;28;20097;-47
2021/12/19 03:49:30;;;;;;;27.45;14.75;;;;;;;-2.27;77.44;93726.56;5090020;28;20099;-46
2021/12/19 03:51:55;;;;;;;38.92;15.23;;;;;;;-2.39;78.20;93724.84;5090048;28;20027;-48
2021/12/19 03:54:21;;;;;;;47.58;22.50;;;;;;;-2.26;77.61;93722.69;5091890;28;20028;-46
2021/12/19 03:56:46;;;;;;;88.75;39.85;;;;;;;-2.30;78.55;93720.13;5094128;28;20152;-48
2021/12/19 03:59:12;;;;;;;89.80;42.70;;;;;;;-2.30;78.54;93716.69;5093925;28;20032;-47
2021/12/19 04:01:38;;;;;;;55.40;23.52;;;;;;;-2.23;78.11;93710.91;5094344;28;20073;-45
2021/12/19 04:04:03;;;;;;;46.15;20.33;;;;;;;-2.36;78.27;93710.44;5093937;28;20020;-43
2021/12/19 04:06:29;;;;;;;42.75;21.17;;;;;;;-2.37;78.53;93717.03;5094255;28;20027;-45
2021/12/19 04:08:56;;;;;;;48.90;22.60;;;;;;;-2.53;78.54;93707.34;5094104;28;20400;-44
2021/12/19 04:11:24;;;;;;;44.67;21.55;;;;;;;-2.72;79.43;93695.13;5093830;28;20027;-46
2021/12/19 04:13:50;;;;;;;85.67;20.87;;;;;;;-2.76;79.83;93701.91;5093999;28;20031;-43
2021/12/19 04:16:15;;;;;;;40.08;19.52;;;;;;;-2.92;80.21;93688.78;5093738;28;20434;-44
2021/12/19 04:18:41;;;;;;;38.70;17.73;;;;;;;-2.74;79.98;93694.09;5093903;28;20089;-43
2021/12/19 04:21:06;;;;;;;36.70;18.70;;;;;;;-2.58;79.15;93697.19;5093452;28;20497;-44
2021/12/19 04:23:33;;;;;;;63.85;32.13;;;;;;;-2.69;79.25;93694.22;5093575;28;20020;-45
2021/12/19 04:25:58;;;;;;;56.38;27.83;;;;;;;-2.65;80.00;93691.34;5093925;28;20122;-44
2021/12/19 04:28:24;;;;;;;77.43;36.45;;;;;;;-2.73;79.27;93699.03;5093665;28;20051;-43
2021/12/19 04:30:49;;;;;;;45.30;21.35;;;;;;;-2.75;79.13;93695.31;5093836;28;20462;-43
2021/12/19 04:33:15;;;;;;;35.25;18.10;;;;;;;-2.84;79.69;93706.16;5093206;28;20099;-45
2021/12/19 04:35:44;;;;;;;34.78;18.83;;;;;;;-2.73;79.69;93703.69;5093665;28;20028;-47
2021/12/19 04:40:54;;;;;;;29.10;16.30;;;;;;;-2.88;77.46;93683.97;5092962;28;20036;-46
2021/12/19 05:00:36;;;;;;;21.58;11.68;;;;;;;-2.82;78.22;93685.56;5073136;28;20036;-42
2021/12/19 05:15:50;;;;;;;29.55;14.30;;;;;;;-2.92;78.56;93688.78;5093029;28;20039;-48
2021/12/19 05:18:15;;;;;;;;;;;;;;;-3.10;77.66;93676.81;5093116;28;20028;-44
2021/12/19 05:20:51;;;;;;;29.67;14.57;;;;;;;-3.29;76.85;93680.06;5092698;28;19950;-44
2021/12/19 05:23:24;;;;;;;22.10;11.77;;;;;;;-3.15;77.88;93682.84;5092549;28;20504;-46
2021/12/19 05:25:51;;;;;;;20.88;11.40;;;;;;;-2.98;78.30;93679.78;5092840;28;20020;-42
2021/12/19 05:28:17;;;;;;;24.02;12.75;;;;;;;-2.92;77.36;93686.06;5085195;28;20028;-43
2021/12/19 05:30:42;;;;;;;20.45;11.77;;;;;;;-2.79;76.05;93684.66;5072057;28;20043;-43
2021/12/19 05:33:08;;;;;;;21.88;10.77;;;;;;;-2.82;75.93;93682.13;5090877;28;20032;-42
2021/12/19 05:46:31;;;;;;;44.85;21.08;;;;;;;-2.81;77.78;93670.84;5072004;28;20071;-44
2021/12/19 05:48:57;;;;;;;38.53;20.08;;;;;;;-2.77;78.73;93670.69;5071772;28;20056;-44
2021/12/19 05:51:22;;;;;;;30.30;17.25;;;;;;;-2.74;79.52;93667.81;5071885;28;20031;-45
2021/12/19 05:53:48;;;;;;;26.95;14.20;;;;;;;-2.69;79.31;93663.75;5082886;28;20114;-45
2021/12/19 05:56:13;;;;;;;22.08;12.23;;;;;;;-2.63;77.40;93656.50;5091056;28;20051;-45
2021/12/19 05:58:39;;;;;;;20.27;11.32;;;;;;;-2.63;77.62;93661.91;5092009;28;20077;-45
2021/12/19 06:01:05;;;;;;;17.98;10.55;;;;;;;-2.51;76.17;93650.88;5091699;28;20457;-46
2021/12/19 06:03:30;;;;;;;23.52;14.13;;;;;;;-2.57;76.00;93651.97;5071503;28;20528;-43
2021/12/19 06:05:56;;;;;;;16.10;9.45;;;;;;;-2.56;76.81;93653.47;5071729;28;20028;-44
2021/12/19 06:08:21;;;;;;;15.50;9.70;;;;;;;-2.57;77.04;93650.00;5071298;28;20535;-46
2021/12/19 06:10:47;;;;;;;21.13;12.13;;;;;;;-2.46;76.47;93652.94;5071450;28;20035;-43
2021/12/19 06:13:12;;;;;;;18.35;12.73;;;;;;;-2.53;76.15;93657.94;5078242;28;20025;-45
2021/12/19 06:15:38;;;;;;;25.42;15.18;;;;;;;-2.55;76.34;93660.34;5091387;28;20486;-42
2021/12/19 06:18:04;;;;;;;31.48;18.00;;;;;;;-2.59;76.88;93655.13;5090738;28;20137;-43
2021/12/19 06:20:31;;;;;;;26.70;14.15;;;;;;;-2.63;77.12;93659.97;5091699;28;20028;-45
2021/12/19 06:22:58;;;;;;;21.88;12.85;;;;;;;-2.68;77.20;93644.38;5091481;28;20467;-43
2021/12/19 06:25:23;;;;;;;30.98;14.82;;;;;;;-2.51;76.58;93650.13;5091515;28;20032;-43
2021/12/19 06:27:49;;;;;;;29.90;13.27;;;;;;;-2.84;76.26;93647.47;5091285;28;20531;-42
2021/12/19 06:30:15;;;;;;;18.50;10.75;;;;;;;-2.84;76.20;93649.41;5091364;28;20032;-42
2021/12/19 06:32:40;;;;;;;31.33;13.93;;;;;;;-3.13;76.53;93649.97;5091338;28;20477;-42
2021/12/19 06:35:10;;;;;;;24.42;11.38;;;;;;;-3.00;76.63;93647.06;5091060;28;20553;-42
2021/12/19 06:37:38;;;;;;;27.88;13.93;;;;;;;-2.90;76.82;93643.16;5090584;28;20573;-42
2021/12/19 06:40:08;;;;;;;24.52;11.82;;;;;;;-2.76;75.85;93645.16;5090828;28;20040;-41
2021/12/19 06:42:34;;;;;;;30.20;15.30;;;;;;;-2.87;76.67;93636.81;5090469;28;20067;-42
2021/12/19 06:45:00;;;;;;;66.00;29.38;;;;;;;-3.04;77.07;93635.69;5090670;28;20419;-43
2021/12/19 06:47:25;;;;;;;41.15;20.55;;;;;;;-3.26;78.37;93636.69;5090828;28;20028;-43
2021/12/19 06:49:51;;;;;;;58.83;26.38;;;;;;;-3.15;78.84;93636.94;5090906;28;20111;-42
2021/12/19 06:52:16;;;;;;;81.80;38.30;;;;;;;-3.01;78.47;93624.72;5080662;28;20044;-42
2021/12/19 06:54:42;;;;;;;55.95;30.20;;;;;;;-3.01;78.04;93622.00;5068072;28;20064;-41
2021/12/19 06:57:07;;;;;;;49.47;28.30;;;;;;;-2.89;77.80;93629.19;5074829;28;20035;-42
2021/12/19 06:59:33;;;;;;;50.38;25.83;;;;;;;-2.86;78.03;93628.25;5088041;28;20497;-43
2021/12/19 07:01:59;;;;;;;34.72;17.58;;;;;;;-2.77;78.27;93630.16;5075272;28;20028;-44
2021/12/19 07:04:25;;;;;;;32.60;14.82;;;;;;;-2.60;76.99;93621.19;5067670;28;20111;-48
2021/12/19 07:06:50;;;;;;;30.20;14.30;;;;;;;-2.62;77.11;93622.88;5068120;28;20453;-43
2021/12/19 07:09:16;;;;;;;29.25;12.98;;;;;;;-2.74;77.09;93627.28;5070788;28;20109;-44
2021/12/19 07:11:42;;;;;;;26.90;15.25;;;;;;;-2.68;76.79;93627.41;5086909;28;20024;-44
2021/12/19 07:14:08;;;;;;;24.05;12.07;;;;;;;-2.78;76.23;93629.41;5078991;28;20504;-44
2021/12/19 07:16:34;;;;;;;21.60;12.50;;;;;;;-2.81;74.28;93634.97;5078282;28;20058;-44
2021/12/19 07:18:59;;;;;;;37.85;13.35;;;;;;;-3.02;74.37;93622.47;5077608;28;20082;-45
2021/12/19 07:21:29;;;;;;;59.72;13.27;;;;;;;-2.96;74.61;93620.66;5069214;28;20033;-45
2021/12/19 07:23:55;;;;;;;30.30;11.45;;;;;;;-3.05;75.72;93615.31;5067963;28;20413;-46
2021/12/19 07:26:20;;;;;;;95.70;31.13;;;;;;;-3.03;74.40;93615.59;5067684;28;20032;-46
2021/12/19 07:28:47;;;;;;;40.92;14.93;;;;;;;-2.98;74.14;93623.81;5067131;28;20032;-46
2021/12/19 07:31:16;;;;;;;33.28;9.52;;;;;;;-2.87;74.26;93623.31;5073285;28;20077;-45
2021/12/19 07:33:43;;;;;;;29.80;11.27;;;;;;;-2.91;72.03;93625.44;5084261;28;20436;-47
2021/12/19 07:36:09;;;;;;;34.35;16.55;;;;;;;-2.99;72.46;93625.03;5081989;28;20443;-43
2021/12/19 07:38:47;;;;;;;28.35;13.32;;;;;;;-3.03;70.41;93616.31;5083599;28;20082;-45
2021/12/19 07:41:13;;;;;;;51.47;21.45;;;;;;;-2.94;70.48;93624.38;5087653;28;20412;-45
2021/12/19 07:43:38;;;;;;;36.55;16.85;;;;;;;-2.90;70.44;93613.44;5087526;28;20056;-45
2021/12/19 07:46:03;;;;;;;28.67;14.15;;;;;;;-2.71;70.38;93612.88;5079318;28;20036;-44
2021/12/19 07:48:29;;;;;;;25.00;12.40;;;;;;;-2.51;70.33;93612.28;5065695;28;20039;-44
2021/12/19 07:50:55;;;;;;;23.58;14.07;;;;;;;-2.19;70.95;93602.59;5067528;28;20114;-45
2021/12/19 07:53:20;;;;;;;24.02;14.38;;;;;;;-1.49;69.39;93593.50;5067466;28;20025;-45
2021/12/19 07:55:46;;;;;;;18.33;11.18;;;;;;;-0.53;66.38;93597.88;5085788;28;20059;-44
2021/12/19 07:58:11;;;;;;;16.10;10.82;;;;;;;0.69;62.08;93601.88;5087530;28;20085;-44
2021/12/19 08:00:37;;;;;;;15.18;9.45;;;;;;;2.36;57.66;93589.91;5085780;28;20050;-45
2021/12/19 08:03:03;;;;;;;14.25;10.18;;;;;;;4.09;53.15;93587.25;5084219;28;20069;-46
2021/12/19 08:05:28;;;;;;;19.60;13.30;;;;;;;5.31;48.27;93578.22;5087180;28;20471;-45
2021/12/19 08:08:01;;;;;;;21.73;14.32;;;;;;;5.91;47.51;93570.69;5087259;28;20039;-46
2021/12/19 08:13:00;;;;;;;18.80;14.20;;;;;;;7.30;43.24;93569.47;5087722;28;20036;-46
2021/12/19 08:15:26;;;;;;;21.88;14.45;;;;;;;8.18;41.58;93580.88;5086310;28;20032;-44
2021/12/19 08:17:51;;;;;;;27.05;19.27;;;;;;;9.16;39.28;93563.47;5086942;28;20530;-46
2021/12/19 08:20:17;;;;;;;44.42;32.75;;;;;;;9.91;38.13;93555.09;5086010;28;20035;-43
2021/12/19 08:22:44;;;;;;;87.10;54.10;;;;;;;9.36;37.57;93547.47;5087522;28;20032;-41
2021/12/19 08:25:10;;;;;;;92.82;58.38;;;;;;;9.00;38.13;93550.09;5082357;28;20351;-45
2021/12/19 08:27:37;;;;;;;89.75;49.75;;;;;;;8.54;38.66;93539.88;5066797;28;20035;-45
2021/12/19 08:30:08;;;;;;;65.00;36.70;;;;;;;7.27;41.62;93543.81;5066992;28;20086;-44
2021/12/19 08:32:34;;;;;;;34.53;22.30;;;;;;;7.26;42.23;93547.06;5074289;28;20290;-46
2021/12/19 08:35:00;;;;;;;26.95;17.33;;;;;;;7.49;42.42;93531.69;5067154;28;20035;-44
2021/12/19 08:37:26;;;;;;;20.05;13.88;;;;;;;8.50;40.55;93534.72;5077470;28;20044;-44
2021/12/19 08:39:51;;;;;;;15.20;11.65;;;;;;;8.18;41.08;93528.63;5080000;28;20021;-44
2021/12/19 08:42:17;;;;;;;43.25;29.38;;;;;;;8.80;38.98;93528.78;5079503;28;20020;-44
2021/12/19 08:44:43;;;;;;;21.80;15.23;;;;;;;9.15;39.30;93536.47;5083842;28;20450;-44
2021/12/19 08:47:09;;;;;;;19.23;14.02;;;;;;;10.54;37.29;93520.50;5068589;28;20638;-45
2021/12/19 08:49:35;;;;;;;13.13;10.40;;;;;;;11.26;35.26;93517.53;5079423;28;20043;-46
2021/12/19 08:52:02;;;;;;;10.90;9.52;;;;;;;10.99;36.02;93532.94;5089499;28;20031;-45
2021/12/19 08:54:27;;;;;;;8.82;5.20;;;;;;;12.13;33.84;93526.88;5089220;28;20600;-47
2021/12/19 08:56:53;;;;;;;6.18;4.75;;;;;;;12.39;32.87;93530.50;5088460;28;20024;-45
2021/12/19 08:59:19;;;;;;;5.75;5.07;;;;;;;12.11;32.78;93526.69;5088858;28;20039;-45
2021/12/19 09:01:44;;;;;;;6.88;6.03;;;;;;;11.63;34.62;93529.88;5089940;28;20059;-43
2021/12/19 09:04:10;;;;;;;5.93;5.13;;;;;;;11.13;34.36;93528.75;5090114;28;20056;-45
2021/12/19 09:06:36;;;;;;;6.07;5.47;;;;;;;10.27;35.01;93518.50;5090175;28;20509;-43
2021/12/19 09:09:04;;;;;;;7.82;5.70;;;;;;;8.08;40.47;93531.06;5090189;28;20060;-44
2021/12/19 09:11:30;;;;;;;7.28;5.75;;;;;;;7.62;42.30;93513.19;5089193;28;20039;-43
2021/12/19 09:13:55;;;;;;;9.55;7.10;;;;;;;7.85;42.48;93519.03;5090951;28;20032;-45
2021/12/19 09:16:21;;;;;;;7.25;5.93;;;;;;;6.49;46.01;93513.34;5090824;28;20067;-43
2021/12/19 09:18:46;;;;;;;7.15;5.75;;;;;;;7.10;45.08;93504.91;5091057;28;20041;-45
2021/12/19 09:21:12;;;;;;;17.60;10.88;;;;;;;7.30;43.87;93520.78;5090873;28;20066;-44
2021/12/19 09:23:38;;;;;;;10.73;7.95;;;;;;;6.58;45.43;93486.25;5082912;28;20028;-44
2021/12/19 09:26:05;;;;;;;8.98;6.32;;;;;;;5.90;47.18;93482.25;5070856;28;20033;-44
2021/12/19 09:28:31;;;;;;;8.85;6.25;;;;;;;6.07;47.51;93487.50;5070703;28;20471;-45
2021/12/19 09:30:56;;;;;;;8.98;6.95;;;;;;;5.63;48.49;93490.78;5071489;28;20471;-44
2021/12/19 09:33:22;;;;;;;10.30;8.00;;;;;;;5.22;49.79;93491.69;5091136;28;20024;-45
2021/12/19 09:35:48;;;;;;;11.98;8.73;;;;;;;5.31;50.99;93485.88;5091454;28;20161;-45
2021/12/19 09:38:14;;;;;;;15.80;10.18;;;;;;;5.94;50.86;93484.69;5078977;28;20441;-45
2021/12/19 09:40:42;;;;;;;11.85;7.80;;;;;;;7.25;47.59;93468.72;5090805;28;20498;-47
2021/12/19 09:46:16;;;;;;;8.77;6.90;;;;;;;7.51;46.43;93461.19;5083784;28;20489;-44
2021/12/19 09:48:44;;;;;;;10.18;6.85;;;;;;;8.62;44.68;93453.38;5092810;28;20020;-44
2021/12/19 09:51:11;;;;;;;9.68;7.53;;;;;;;9.55;41.75;93457.78;5093061;28;20027;-47
2021/12/19 09:53:38;;;;;;;8.60;6.68;;;;;;;10.02;41.07;93440.97;5092880;28;20032;-44
2021/12/19 09:56:04;;;;;;;9.60;6.90;;;;;;;10.12;40.12;93439.19;5091837;28;20067;-46
2021/12/19 09:58:32;;;;;;;11.07;7.28;;;;;;;10.55;39.01;93433.59;5092833;28;20031;-45
2021/12/19 10:00:59;;;;;;;11.65;6.90;;;;;;;10.18;39.87;93428.72;5088159;28;20085;-45
2021/12/19 10:03:24;;;;;;;10.02;7.07;;;;;;;10.95;38.90;93433.13;5093097;28;20027;-46
2021/12/19 10:05:50;;;;;;;8.18;6.47;;;;;;;11.63;37.94;93417.22;5091544;28;20119;-46
2021/12/19 10:08:23;;;;;;;9.13;6.47;;;;;;;12.21;36.39;93418.19;5075131;28;20024;-44
2021/12/19 10:10:56;;;;;;;11.82;8.05;;;;;;;12.59;35.50;93413.16;5085863;28;20035;-47
2021/12/19 10:13:32;;;;;;;9.60;7.35;;;;;;;12.76;35.72;93404.94;5085829;28;20024;-45
2021/12/19 10:15:58;;;;;;;8.40;6.65;;;;;;;13.01;34.83;93402.94;5077298;28;20023;-45
2021/12/19 10:18:24;;;;;;;7.60;6.68;;;;;;;13.21;33.84;93393.53;5080261;28;20086;-46
2021/12/19 10:20:52;;;;;;;9.68;7.00;;;;;;;12.91;34.86;93388.94;5072525;28;20047;-46
2021/12/19 10:23:23;;;;;;;8.98;7.22;;;;;;;13.59;33.93;93385.63;5072211;28;20031;-46
2021/12/19 10:26:01;;;;;;;10.05;6.90;;;;;;;13.41;34.64;93369.53;5072161;28;20020;-45
2021/12/19 10:28:28;;;;;;;10.05;7.63;;;;;;;13.63;33.86;93374.84;5071918;28;20043;-46
2021/12/19 10:30:56;;;;;;;10.25;7.47;;;;;;;13.26;33.73;93369.66;5072476;28;20028;-44
2021/12/19 10:33:23;;;;;;;12.52;8.85;;;;;;;12.75;35.14;93370.97;5092211;28;20031;-47
2021/12/19 10:36:00;;;;;;;11.38;8.20;;;;;;;13.04;34.83;93362.28;5092636;28;20080;-48
2021/12/19 10:38:37;;;;;;;14.52;9.95;;;;;;;13.43;34.81;93364.13;5092146;28;20035;-44
2021/12/19 10:41:17;;;;;;;13.20;8.93;;;;;;;12.00;36.61;93361.06;5071843;28;20497;-45
2021/12/19 10:43:56;;;;;;;14.88;10.05;;;;;;;10.84;39.94;93361.66;5083316;28;20048;-45
2021/12/19 10:46:30;;;;;;;15.65;11.98;;;;;;;9.47;41.87;93357.81;5092135;28;20112;-45
2021/12/19 10:48:57;;;;;;;11.70;9.93;;;;;;;9.04;43.54;93347.47;5088993;28;20039;-46
2021/12/19 10:51:22;;;;;;;12.65;9.45;;;;;;;8.50;44.39;93346.88;5082502;28;20042;-46
2021/12/19 10:53:55;;;;;;;12.63;9.43;;;;;;;7.86;47.24;93343.84;5082643;28;20028;-46
2021/12/19 10:56:31;;;;;;;13.57;10.98;;;;;;;7.02;48.93;93324.88;5082195;28;20024;-45
2021/12/19 10:59:13;;;;;;;16.08;10.63;;;;;;;6.56;50.94;93337.22;5082725;28;20051;-45
2021/12/19 11:01:41;;;;;;;15.05;10.75;;;;;;;6.00;51.82;93332.63;5082758;28;20060;-44
2021/12/19 11:04:07;;;;;;;20.25;12.52;;;;;;;5.33;53.95;93341.03;5082169;28;20030;-45
2021/12/19 11:06:44;;;;;;;17.65;12.35;;;;;;;5.18;55.06;93334.50;5083408;28;20020;-44
2021/12/19 11:09:12;;;;;;;15.07;10.75;;;;;;;4.90;55.48;93332.09;5085813;28;20458;-44
2021/12/19 11:11:46;;;;;;;17.60;12.07;;;;;;;4.56;57.47;93328.25;5081825;28;20177;-45
2021/12/19 11:14:16;;;;;;;16.25;11.45;;;;;;;4.07;58.77;93329.47;5082104;28;20497;-45
2021/12/19 11:16:42;;;;;;;17.77;11.95;;;;;;;4.17;59.60;93320.41;5082195;28;20028;-45
2021/12/19 11:19:08;;;;;;;20.67;12.20;;;;;;;4.01;59.83;93318.56;5079998;28;20085;-44
2021/12/19 11:21:35;;;;;;;16.30;10.50;;;;;;;3.51;60.89;93313.47;5081417;28;20028;-44
2021/12/19 11:24:07;;;;;;;17.30;12.10;;;;;;;3.60;61.89;93301.50;5081309;28;20103;-44
2021/12/19 11:26:32;;;;;;;21.42;13.10;;;;;;;3.72;62.63;93302.91;5082029;28;20103;-43
2021/12/19 11:28:59;;;;;;;23.30;12.85;;;;;;;3.54;61.94;93276.25;5081569;28;20020;-43
2021/12/19 11:31:31;;;;;;;17.55;11.50;;;;;;;3.52;63.24;93284.94;5076073;28;20012;-45
2021/12/19 11:34:18;;;;;;;15.60;10.52;;;;;;;3.69;62.66;93277.38;5088220;28;20028;-43
2021/12/19 11:36:48;;;;;;;18.27;11.95;;;;;;;3.66;63.26;93289.28;5081921;28;20028;-46
2021/12/19 11:39:14;;;;;;;19.08;12.27;;;;;;;3.73;62.93;93277.09;5082031;28;20029;-43
2021/12/19 11:42:01;;;;;;;16.73;11.55;;;;;;;3.33;64.07;93265.00;5080814;28;20528;-45
2021/12/19 11:45:02;;;;;;;16.88;11.93;;;;;;;3.34;63.62;93276.63;5081552;28;20047;-44
2021/12/19 11:47:57;;;;;;;19.33;12.98;;;;;;;3.26;64.78;93278.41;5090390;28;20024;-45
2021/12/19 11:50:27;;;;;;;14.77;10.60;;;;;;;2.97;65.60;93277.09;5091134;28;20031;-44
2021/12/19 11:52:56;;;;;;;20.27;11.70;;;;;;;3.06;66.13;93263.16;5091239;28;20024;-45
2021/12/19 11:55:27;;;;;;;18.75;12.00;;;;;;;3.12;65.18;93274.78;5091556;28;20089;-43
2021/12/19 11:58:11;;;;;;;17.55;11.88;;;;;;;2.75;65.87;93269.03;5091519;28;20118;-47
2021/12/19 12:00:40;;;;;;;16.02;11.45;;;;;;;2.61;66.99;93270.81;5071165;28;20497;-43
2021/12/19 12:03:14;;;;;;;17.97;11.13;;;;;;;2.62;67.15;93272.28;5071113;28;20040;-46
2021/12/19 12:05:47;;;;;;;22.08;13.23;;;;;;;2.67;68.15;93276.25;5070946;28;20615;-46
2021/12/19 12:08:19;;;;;;;20.35;13.05;;;;;;;2.73;67.37;93266.06;5071206;28;20496;-44
2021/12/19 12:10:55;;;;;;;19.65;12.65;;;;;;;2.77;67.68;93267.25;5071196;28;20055;-45
2021/12/19 12:13:40;;;;;;;17.23;11.65;;;;;;;2.96;67.00;93259.25;5076103;28;20028;-46
2021/12/19 12:16:11;;;;;;;18.85;12.23;;;;;;;3.11;66.63;93254.22;5090312;28;20114;-45
2021/12/19 12:18:38;;;;;;;21.73;13.27;;;;;;;3.47;66.12;93247.50;5095007;28;20077;-46
2021/12/19 12:21:43;;;;;;;19.02;12.40;;;;;;;3.67;64.33;93246.38;5082569;28;20519;-45
2021/12/19 12:24:25;;;;;;;15.35;11.15;;;;;;;3.84;63.63;93220.41;5078848;28;20554;-47
2021/12/19 12:27:02;;;;;;;15.23;9.93;;;;;;;4.45;62.17;93225.22;5084405;28;20038;-46
2021/12/19 12:29:31;;;;;;;20.02;12.30;;;;;;;4.70;60.25;93217.72;5077506;28;20033;-47
2021/12/19 12:31:57;;;;;;;17.25;11.77;;;;;;;4.72;60.63;93206.28;5083460;28;20083;-46
2021/12/19 12:34:22;;;;;;;15.45;10.65;;;;;;;4.80;59.63;93205.16;5084810;28;20060;-47
2021/12/19 12:36:53;;;;;;;16.42;13.00;;;;;;;4.44;60.43;93201.16;5091437;28;20083;-46
2021/12/19 12:39:24;;;;;;;19.55;12.98;;;;;;;4.31;61.18;93182.66;5093918;28;20050;-48
2021/12/19 12:41:58;;;;;;;19.95;13.77;;;;;;;3.98;62.07;93191.22;5083943;28;20029;-45